^^
Daily Summary for December 25, 2021 Units:  Both    English   Metric
Daily Weekly Monthly Yearly Custom
  High: Low: Average:
Temperature: 43.0 °F /  6.1 °C 40.0 °F /  4.4 °C 41 °F /  5 °C
Dew Point: 41.0 °F /  5 °C 38.0 °F /  3.3 °C 39 °F /  3.9 °C
Humidity: 94% 87% 92%
Wind Speed: 40mph /  64.4km/h - 15.5mph /  24.9km/h
Wind Gust: 40mph /  64.4km/h - -
Wind- - East
Pressure: 30.1 in /  1019.2 hPa 29.8 in /  1009 hPa -
Precipitation: 0.610 in /  15.49 mm    
Historical Graphs
 
 
Tabular Data for December 25, 2021
Time Temperature Dew Point Pressure Wind Wind Speed Wind Gust Humidity Rainfall Rate (Hourly) solar
00:04 40.0 °F /  4.4 °C 39.0 °F /  3.9 °C 30.1in /  1019.2hPa NNW 7mph /  11.3km/h 6mph /  9.7km/h 94% 0.010in /  0.25mm 0.00 W/m2
00:09 40.0 °F /  4.4 °C 39.0 °F /  3.9 °C 30.1in /  1019.2hPa NNE 11mph /  17.7km/h 7mph /  11.3km/h 94% 0.010in /  0.25mm 0.00 W/m2
00:14 40.0 °F /  4.4 °C 39.0 °F /  3.9 °C 30.1in /  1019.2hPa NE 6mph /  9.7km/h 10mph /  16.1km/h 94% 0.010in /  0.25mm 0.00 W/m2
00:19 40.0 °F /  4.4 °C 39.0 °F /  3.9 °C 30.1in /  1019.2hPa East 6mph /  9.7km/h 6mph /  9.7km/h 94% 0.010in /  0.25mm 0.00 W/m2
00:24 40.0 °F /  4.4 °C 39.0 °F /  3.9 °C 30.1in /  1019.2hPa East 11mph /  17.7km/h 9mph /  14.5km/h 94% 0.010in /  0.25mm 0.00 W/m2
00:29 40.0 °F /  4.4 °C 39.0 °F /  3.9 °C 30.1in /  1019.2hPa ENE 7mph /  11.3km/h 10mph /  16.1km/h 94% 0.010in /  0.25mm 0.00 W/m2
00:34 40.0 °F /  4.4 °C 39.0 °F /  3.9 °C 30.0in /  1015.8hPa NNE 6mph /  9.7km/h 7mph /  11.3km/h 94% 0.010in /  0.25mm 0.00 W/m2
00:39 40.0 °F /  4.4 °C 39.0 °F /  3.9 °C 30.0in /  1015.8hPa Calm   3mph /  4.8km/h 94% 0.010in /  0.25mm 0.00 W/m2
00:44 40.0 °F /  4.4 °C 39.0 °F /  3.9 °C 30.0in /  1015.8hPa NNW 9mph /  14.5km/h 4mph /  6.4km/h 94% 0.000in /  0mm 0.00 W/m2
00:49 40.0 °F /  4.4 °C 39.0 °F /  3.9 °C 30.0in /  1015.8hPa NE 4mph /  6.4km/h 9mph /  14.5km/h 94% 0.000in /  0mm 0.00 W/m2
00:54 40.0 °F /  4.4 °C 39.0 °F /  3.9 °C 30.1in /  1019.2hPa ENE 9mph /  14.5km/h 4mph /  6.4km/h 94% 0.000in /  0mm 0.00 W/m2
00:59 40.0 °F /  4.4 °C 39.0 °F /  3.9 °C 30.0in /  1015.8hPa NNE 3mph /  4.8km/h 9mph /  14.5km/h 94% 0.000in /  0mm 0.00 W/m2
01:04 40.0 °F /  4.4 °C 39.0 °F /  3.9 °C 30.0in /  1015.8hPa SE 4mph /  6.4km/h 2mph /  3.2km/h 94% 0.000in /  0mm 0.00 W/m2
01:09 40.0 °F /  4.4 °C 39.0 °F /  3.9 °C 30.0in /  1015.8hPa SE 21mph /  33.8km/h 7mph /  11.3km/h 94% 0.000in /  0mm 0.00 W/m2
01:14 40.0 °F /  4.4 °C 39.0 °F /  3.9 °C 30.0in /  1015.8hPa SE 4mph /  6.4km/h 21mph /  33.8km/h 94% 0.000in /  0mm 0.00 W/m2
01:19 40.0 °F /  4.4 °C 39.0 °F /  3.9 °C 30.0in /  1015.8hPa ENE 6mph /  9.7km/h 3mph /  4.8km/h 94% 0.000in /  0mm 0.00 W/m2
01:24 40.0 °F /  4.4 °C 39.0 °F /  3.9 °C 30.1in /  1019.2hPa SE 2mph /  3.2km/h 6mph /  9.7km/h 94% 0.000in /  0mm 0.00 W/m2
01:29 40.0 °F /  4.4 °C 39.0 °F /  3.9 °C 30.1in /  1019.2hPa ENE 6mph /  9.7km/h 2mph /  3.2km/h 94% 0.000in /  0mm 0.00 W/m2
01:34 40.0 °F /  4.4 °C 39.0 °F /  3.9 °C 30.1in /  1019.2hPa NNE 11mph /  17.7km/h 10mph /  16.1km/h 94% 0.000in /  0mm 0.00 W/m2
01:39 40.0 °F /  4.4 °C 39.0 °F /  3.9 °C 30.0in /  1015.8hPa NNE 9mph /  14.5km/h 9mph /  14.5km/h 94% 0.000in /  0mm 0.00 W/m2
01:44 40.0 °F /  4.4 °C 39.0 °F /  3.9 °C 30.0in /  1015.8hPa NE 11mph /  17.7km/h 9mph /  14.5km/h 94% 0.000in /  0mm 0.00 W/m2
01:49 40.0 °F /  4.4 °C 38.0 °F /  3.3 °C 30.0in /  1015.8hPa NNE 13mph /  20.9km/h 13mph /  20.9km/h 94% 0.000in /  0mm 0.00 W/m2
01:54 40.0 °F /  4.4 °C 38.0 °F /  3.3 °C 30.0in /  1015.8hPa ENE 7mph /  11.3km/h 13mph /  20.9km/h 94% 0.000in /  0mm 0.00 W/m2
01:59 40.0 °F /  4.4 °C 38.0 °F /  3.3 °C 30.0in /  1015.8hPa North 7mph /  11.3km/h 7mph /  11.3km/h 94% 0.000in /  0mm 0.00 W/m2
02:04 40.0 °F /  4.4 °C 38.0 °F /  3.3 °C 30.0in /  1015.8hPa NE 7mph /  11.3km/h 7mph /  11.3km/h 93% 0.000in /  0mm 0.00 W/m2
02:09 40.0 °F /  4.4 °C 38.0 °F /  3.3 °C 30.0in /  1015.8hPa NE 4mph /  6.4km/h 7mph /  11.3km/h 93% 0.000in /  0mm 0.00 W/m2
02:14 40.0 °F /  4.4 °C 38.0 °F /  3.3 °C 30.0in /  1015.8hPa NNE 9mph /  14.5km/h 5mph /  8km/h 93% 0.000in /  0mm 0.00 W/m2
02:19 40.0 °F /  4.4 °C 38.0 °F /  3.3 °C 30.0in /  1015.8hPa NE 7mph /  11.3km/h 9mph /  14.5km/h 93% 0.000in /  0mm 0.00 W/m2
02:24 40.0 °F /  4.4 °C 38.0 °F /  3.3 °C 30.0in /  1015.8hPa NNE 9mph /  14.5km/h 7mph /  11.3km/h 93% 0.000in /  0mm 0.00 W/m2
02:29 40.0 °F /  4.4 °C 38.0 °F /  3.3 °C 30.0in /  1015.8hPa North 11mph /  17.7km/h 9mph /  14.5km/h 93% 0.000in /  0mm 0.00 W/m2
02:34 40.0 °F /  4.4 °C 38.0 °F /  3.3 °C 30.0in /  1015.8hPa NNE 11mph /  17.7km/h 10mph /  16.1km/h 93% 0.000in /  0mm 0.00 W/m2
02:39 40.0 °F /  4.4 °C 39.0 °F /  3.9 °C 30.0in /  1015.8hPa NNE 14mph /  22.5km/h 10mph /  16.1km/h 94% 0.000in /  0mm 0.00 W/m2
02:44 40.0 °F /  4.4 °C 39.0 °F /  3.9 °C 30.0in /  1015.8hPa NE 18mph /  29km/h 14mph /  22.5km/h 94% 0.000in /  0mm 0.00 W/m2
02:49 40.0 °F /  4.4 °C 39.0 °F /  3.9 °C 30.0in /  1015.8hPa NNE 11mph /  17.7km/h 17mph /  27.4km/h 94% 0.000in /  0mm 0.00 W/m2
02:54 40.0 °F /  4.4 °C 39.0 °F /  3.9 °C 30.0in /  1015.8hPa NNE 9mph /  14.5km/h 10mph /  16.1km/h 94% 0.000in /  0mm 0.00 W/m2
02:59 40.0 °F /  4.4 °C 39.0 °F /  3.9 °C 30.0in /  1015.8hPa NNE 20mph /  32.2km/h 9mph /  14.5km/h 94% 0.000in /  0mm 0.00 W/m2
03:04 40.0 °F /  4.4 °C 39.0 °F /  3.9 °C 30.0in /  1015.8hPa NE 14mph /  22.5km/h 20mph /  32.2km/h 94% 0.000in /  0mm 0.00 W/m2
03:09 40.0 °F /  4.4 °C 39.0 °F /  3.9 °C 30.0in /  1015.8hPa NNE 13mph /  20.9km/h 6mph /  9.7km/h 94% 0.000in /  0mm 0.00 W/m2
03:14 41.0 °F /  5 °C 39.0 °F /  3.9 °C 30.0in /  1015.8hPa NE 20mph /  32.2km/h 13mph /  20.9km/h 93% 0.000in /  0mm 0.00 W/m2
03:19 41.0 °F /  5 °C 39.0 °F /  3.9 °C 30.0in /  1015.8hPa NNE 13mph /  20.9km/h 20mph /  32.2km/h 93% 0.000in /  0mm 0.00 W/m2
03:24 41.0 °F /  5 °C 39.0 °F /  3.9 °C 30.0in /  1015.8hPa NE 14mph /  22.5km/h 13mph /  20.9km/h 93% 0.000in /  0mm 0.00 W/m2
03:29 41.0 °F /  5 °C 39.0 °F /  3.9 °C 30.0in /  1015.8hPa NNE 18mph /  29km/h 15mph /  24.1km/h 93% 0.000in /  0mm 0.00 W/m2
03:34 41.0 °F /  5 °C 39.0 °F /  3.9 °C 30.0in /  1015.8hPa ESE 28mph /  45.1km/h 17mph /  27.4km/h 93% 0.000in /  0mm 0.00 W/m2
03:39 41.0 °F /  5 °C 39.0 °F /  3.9 °C 30.0in /  1015.8hPa NE 13mph /  20.9km/h 28mph /  45.1km/h 93% 0.000in /  0mm 0.00 W/m2
03:44 41.0 °F /  5 °C 39.0 °F /  3.9 °C 30.0in /  1015.8hPa NE 11mph /  17.7km/h 13mph /  20.9km/h 93% 0.000in /  0mm 0.00 W/m2
03:49 41.0 °F /  5 °C 39.0 °F /  3.9 °C 30.0in /  1015.8hPa North 23mph /  37km/h 17mph /  27.4km/h 93% 0.000in /  0mm 0.00 W/m2
03:54 41.0 °F /  5 °C 39.0 °F /  3.9 °C 30.0in /  1015.8hPa NE 20mph /  32.2km/h 23mph /  37km/h 93% 0.000in /  0mm 0.00 W/m2
03:59 41.0 °F /  5 °C 39.0 °F /  3.9 °C 30.0in /  1015.8hPa NNE 13mph /  20.9km/h 13mph /  20.9km/h 93% 0.000in /  0mm 0.00 W/m2
04:04 41.0 °F /  5 °C 39.0 °F /  3.9 °C 30.0in /  1015.8hPa North 7mph /  11.3km/h 13mph /  20.9km/h 93% 0.000in /  0mm 0.00 W/m2
04:09 41.0 °F /  5 °C 39.0 °F /  3.9 °C 30.0in /  1015.8hPa North 18mph /  29km/h 11mph /  17.7km/h 93% 0.000in /  0mm 0.00 W/m2
04:14 41.0 °F /  5 °C 39.0 °F /  3.9 °C 30.0in /  1015.8hPa NE 17mph /  27.4km/h 17mph /  27.4km/h 93% 0.000in /  0mm 0.00 W/m2
04:19 41.0 °F /  5 °C 39.0 °F /  3.9 °C 30.0in /  1015.8hPa NNE 11mph /  17.7km/h 10mph /  16.1km/h 93% 0.000in /  0mm 0.00 W/m2
04:24 41.0 °F /  5 °C 39.0 °F /  3.9 °C 30.0in /  1015.8hPa NNE 14mph /  22.5km/h 10mph /  16.1km/h 93% 0.000in /  0mm 0.00 W/m2
04:29 41.0 °F /  5 °C 39.0 °F /  3.9 °C 30.0in /  1015.8hPa North 9mph /  14.5km/h 14mph /  22.5km/h 93% 0.000in /  0mm 0.00 W/m2
04:34 41.0 °F /  5 °C 39.0 °F /  3.9 °C 30.0in /  1015.8hPa NNE 13mph /  20.9km/h 9mph /  14.5km/h 93% 0.000in /  0mm 0.00 W/m2
04:39 40.0 °F /  4.4 °C 39.0 °F /  3.9 °C 30.0in /  1015.8hPa NE 20mph /  32.2km/h 20mph /  32.2km/h 93% 0.000in /  0mm 0.00 W/m2
04:44 40.0 °F /  4.4 °C 39.0 °F /  3.9 °C 30.0in /  1015.8hPa North 11mph /  17.7km/h 17mph /  27.4km/h 93% 0.000in /  0mm 0.00 W/m2
04:49 40.0 °F /  4.4 °C 38.0 °F /  3.3 °C 30.0in /  1015.8hPa NNE 13mph /  20.9km/h 10mph /  16.1km/h 92% 0.000in /  0mm 0.00 W/m2
04:54 40.0 °F /  4.4 °C 38.0 °F /  3.3 °C 30.0in /  1015.8hPa NNE 11mph /  17.7km/h 13mph /  20.9km/h 92% 0.000in /  0mm 0.00 W/m2
04:59 40.0 °F /  4.4 °C 38.0 °F /  3.3 °C 30.0in /  1015.8hPa NNE 13mph /  20.9km/h 10mph /  16.1km/h 92% 0.000in /  0mm 0.00 W/m2
05:04 40.0 °F /  4.4 °C 38.0 °F /  3.3 °C 30.0in /  1015.8hPa ENE 9mph /  14.5km/h 13mph /  20.9km/h 92% 0.000in /  0mm 0.00 W/m2
05:09 40.0 °F /  4.4 °C 38.0 °F /  3.3 °C 30.0in /  1015.8hPa North 13mph /  20.9km/h 10mph /  16.1km/h 92% 0.000in /  0mm 0.00 W/m2
05:14 40.0 °F /  4.4 °C 38.0 °F /  3.3 °C 30.0in /  1015.8hPa North 11mph /  17.7km/h 13mph /  20.9km/h 92% 0.000in /  0mm 0.00 W/m2
05:19 40.0 °F /  4.4 °C 38.0 °F /  3.3 °C 30.0in /  1015.8hPa NNE 12mph /  19.3km/h 10mph /  16.1km/h 92% 0.000in /  0mm 0.00 W/m2
05:24 40.0 °F /  4.4 °C 38.0 °F /  3.3 °C 30.0in /  1015.8hPa NE 16mph /  25.7km/h 13mph /  20.9km/h 92% 0.000in /  0mm 0.00 W/m2
05:29 40.0 °F /  4.4 °C 38.0 °F /  3.3 °C 30.0in /  1015.8hPa NNE 13mph /  20.9km/h 16mph /  25.7km/h 91% 0.000in /  0mm 0.00 W/m2
05:34 40.0 °F /  4.4 °C 38.0 °F /  3.3 °C 30.0in /  1015.8hPa NNE 11mph /  17.7km/h 13mph /  20.9km/h 92% 0.000in /  0mm 0.00 W/m2
05:39 40.0 °F /  4.4 °C 38.0 °F /  3.3 °C 30.0in /  1015.8hPa NE 13mph /  20.9km/h 7mph /  11.3km/h 92% 0.000in /  0mm 0.00 W/m2
05:44 40.0 °F /  4.4 °C 38.0 °F /  3.3 °C 30.0in /  1015.8hPa NNE 13mph /  20.9km/h 13mph /  20.9km/h 92% 0.000in /  0mm 0.00 W/m2
05:49 41.0 °F /  5 °C 38.0 °F /  3.3 °C 30.0in /  1015.8hPa NNE 13mph /  20.9km/h 13mph /  20.9km/h 91% 0.000in /  0mm 0.00 W/m2
05:54 41.0 °F /  5 °C 38.0 °F /  3.3 °C 30.0in /  1015.8hPa NNE 9mph /  14.5km/h 13mph /  20.9km/h 91% 0.000in /  0mm 0.00 W/m2
05:59 41.0 °F /  5 °C 38.0 °F /  3.3 °C 30.0in /  1015.8hPa NE 9mph /  14.5km/h 9mph /  14.5km/h 91% 0.000in /  0mm 0.00 W/m2
06:04 41.0 °F /  5 °C 38.0 °F /  3.3 °C 30.0in /  1015.8hPa North 11mph /  17.7km/h 9mph /  14.5km/h 91% 0.000in /  0mm 0.00 W/m2
06:09 41.0 °F /  5 °C 38.0 °F /  3.3 °C 30.0in /  1015.8hPa North 10mph /  16.1km/h 10mph /  16.1km/h 91% 0.000in /  0mm 0.00 W/m2
06:14 41.0 °F /  5 °C 38.0 °F /  3.3 °C 30.0in /  1015.8hPa NNE 9mph /  14.5km/h 9mph /  14.5km/h 91% 0.000in /  0mm 0.00 W/m2
06:19 41.0 °F /  5 °C 38.0 °F /  3.3 °C 30.0in /  1015.8hPa NNE 9mph /  14.5km/h 9mph /  14.5km/h 91% 0.000in /  0mm 0.00 W/m2
06:24 41.0 °F /  5 °C 38.0 °F /  3.3 °C 30.0in /  1015.8hPa NNE 9mph /  14.5km/h 9mph /  14.5km/h 91% 0.000in /  0mm 0.00 W/m2
06:29 41.0 °F /  5 °C 38.0 °F /  3.3 °C 30.0in /  1015.8hPa NE 9mph /  14.5km/h 9mph /  14.5km/h 91% 0.000in /  0mm 0.00 W/m2
06:34 41.0 °F /  5 °C 38.0 °F /  3.3 °C 30.0in /  1015.8hPa NE 11mph /  17.7km/h 9mph /  14.5km/h 90% 0.000in /  0mm 0.00 W/m2
06:39 41.0 °F /  5 °C 38.0 °F /  3.3 °C 30.0in /  1015.8hPa NE 20mph /  32.2km/h 15mph /  24.1km/h 90% 0.000in /  0mm 0.00 W/m2
06:44 41.0 °F /  5 °C 38.0 °F /  3.3 °C 30.0in /  1015.8hPa NNE 13mph /  20.9km/h 20mph /  32.2km/h 90% 0.000in /  0mm 0.00 W/m2
06:49 41.0 °F /  5 °C 38.0 °F /  3.3 °C 30.0in /  1015.8hPa NW 21mph /  33.8km/h 13mph /  20.9km/h 90% 0.000in /  0mm 0.00 W/m2
06:54 41.0 °F /  5 °C 38.0 °F /  3.3 °C 30.0in /  1015.8hPa East 21mph /  33.8km/h 21mph /  33.8km/h 90% 0.000in /  0mm 0.00 W/m2
06:59 41.0 °F /  5 °C 39.0 °F /  3.9 °C 30.0in /  1015.8hPa NNE 18mph /  29km/h 21mph /  33.8km/h 90% 0.000in /  0mm 0.00 W/m2
07:04 41.0 °F /  5 °C 38.0 °F /  3.3 °C 30.0in /  1015.8hPa NNE 23mph /  37km/h 17mph /  27.4km/h 89% 0.000in /  0mm 0.00 W/m2
07:09 41.0 °F /  5 °C 38.0 °F /  3.3 °C 30.0in /  1015.8hPa ENE 17mph /  27.4km/h 23mph /  37km/h 89% 0.000in /  0mm 0.00 W/m2
07:14 41.0 °F /  5 °C 38.0 °F /  3.3 °C 30.0in /  1015.8hPa ENE 27mph /  43.5km/h 16mph /  25.7km/h 89% 0.000in /  0mm 0.00 W/m2
07:19 42.0 °F /  5.6 °C 38.0 °F /  3.3 °C 30.0in /  1015.8hPa NNE 21mph /  33.8km/h 26mph /  41.8km/h 88% 0.000in /  0mm 0.00 W/m2
07:24 42.0 °F /  5.6 °C 38.0 °F /  3.3 °C 30.0in /  1015.8hPa NNE 18mph /  29km/h 17mph /  27.4km/h 88% 0.000in /  0mm 5.00 W/m2
07:29 41.0 °F /  5 °C 38.0 °F /  3.3 °C 30.0in /  1015.8hPa NNE 11mph /  17.7km/h 17mph /  27.4km/h 88% 0.000in /  0mm 5.00 W/m2
07:34 41.0 °F /  5 °C 38.0 °F /  3.3 °C 30.0in /  1015.8hPa NNE 18mph /  29km/h 9mph /  14.5km/h 88% 0.000in /  0mm 9.00 W/m2
07:39 41.0 °F /  5 °C 38.0 °F /  3.3 °C 30.0in /  1015.8hPa SSE 11mph /  17.7km/h 17mph /  27.4km/h 88% 0.000in /  0mm 12.00 W/m2
07:44 41.0 °F /  5 °C 38.0 °F /  3.3 °C 30.0in /  1015.8hPa NE 16mph /  25.7km/h 10mph /  16.1km/h 88% 0.000in /  0mm 16.00 W/m2
07:49 41.0 °F /  5 °C 38.0 °F /  3.3 °C 30.0in /  1015.8hPa ESE 13mph /  20.9km/h 16mph /  25.7km/h 88% 0.000in /  0mm 11.00 W/m2
07:54 41.0 °F /  5 °C 38.0 °F /  3.3 °C 30.0in /  1015.8hPa ENE 16mph /  25.7km/h 13mph /  20.9km/h 88% 0.000in /  0mm 9.00 W/m2
07:59 41.0 °F /  5 °C 38.0 °F /  3.3 °C 30.0in /  1015.8hPa NE 16mph /  25.7km/h 16mph /  25.7km/h 88% 0.000in /  0mm 14.00 W/m2
08:04 41.0 °F /  5 °C 38.0 °F /  3.3 °C 30.0in /  1015.8hPa East 9mph /  14.5km/h 16mph /  25.7km/h 88% 0.000in /  0mm 16.00 W/m2
08:09 41.0 °F /  5 °C 38.0 °F /  3.3 °C 30.0in /  1015.8hPa ENE 18mph /  29km/h 9mph /  14.5km/h 88% 0.000in /  0mm 32.00 W/m2
08:14 41.0 °F /  5 °C 38.0 °F /  3.3 °C 30.0in /  1015.8hPa NNE 18mph /  29km/h 17mph /  27.4km/h 88% 0.000in /  0mm 62.00 W/m2
08:19 41.0 °F /  5 °C 38.0 °F /  3.3 °C 30.0in /  1015.8hPa East 16mph /  25.7km/h 17mph /  27.4km/h 88% 0.000in /  0mm 62.00 W/m2
08:24 41.0 °F /  5 °C 38.0 °F /  3.3 °C 30.0in /  1015.8hPa NNE 13mph /  20.9km/h 16mph /  25.7km/h 89% 0.000in /  0mm 67.00 W/m2
08:29 42.0 °F /  5.6 °C 39.0 °F /  3.9 °C 30.0in /  1015.8hPa ENE 18mph /  29km/h 13mph /  20.9km/h 89% 0.000in /  0mm 62.00 W/m2
08:34 42.0 °F /  5.6 °C 39.0 °F /  3.9 °C 30.0in /  1015.8hPa NE 23mph /  37km/h 17mph /  27.4km/h 89% 0.000in /  0mm 30.00 W/m2
08:39 42.0 °F /  5.6 °C 38.0 °F /  3.3 °C 30.0in /  1015.8hPa East 18mph /  29km/h 23mph /  37km/h 88% 0.000in /  0mm 26.00 W/m2
08:44 42.0 °F /  5.6 °C 39.0 °F /  3.9 °C 30.0in /  1015.8hPa ENE 20mph /  32.2km/h 17mph /  27.4km/h 88% 0.000in /  0mm 42.00 W/m2
08:49 42.0 °F /  5.6 °C 39.0 °F /  3.9 °C 30.0in /  1015.8hPa SE 16mph /  25.7km/h 20mph /  32.2km/h 88% 0.000in /  0mm 49.00 W/m2
08:54 42.0 °F /  5.6 °C 39.0 °F /  3.9 °C 30.0in /  1015.8hPa NNE 28mph /  45.1km/h 14mph /  22.5km/h 88% 0.000in /  0mm 74.00 W/m2
08:59 42.0 °F /  5.6 °C 39.0 °F /  3.9 °C 30.0in /  1015.8hPa NE 18mph /  29km/h 28mph /  45.1km/h 88% 0.000in /  0mm 97.00 W/m2
09:04 42.0 °F /  5.6 °C 38.0 °F /  3.3 °C 30.0in /  1015.8hPa NNE 18mph /  29km/h 17mph /  27.4km/h 87% 0.000in /  0mm 79.00 W/m2
09:09 42.0 °F /  5.6 °C 38.0 °F /  3.3 °C 30.0in /  1015.8hPa ENE 21mph /  33.8km/h 17mph /  27.4km/h 87% 0.000in /  0mm 79.00 W/m2
09:14 42.0 °F /  5.6 °C 38.0 °F /  3.3 °C 30.0in /  1015.8hPa NNE 18mph /  29km/h 21mph /  33.8km/h 87% 0.000in /  0mm 70.00 W/m2
09:19 42.0 °F /  5.6 °C 38.0 °F /  3.3 °C 30.0in /  1015.8hPa ENE 18mph /  29km/h 13mph /  20.9km/h 87% 0.000in /  0mm 100.00 W/m2
09:24 42.0 °F /  5.6 °C 38.0 °F /  3.3 °C 30.0in /  1015.8hPa NE 25mph /  40.2km/h 17mph /  27.4km/h 87% 0.000in /  0mm 123.00 W/m2
09:29 42.0 °F /  5.6 °C 38.0 °F /  3.3 °C 30.0in /  1015.8hPa East 20mph /  32.2km/h 25mph /  40.2km/h 87% 0.000in /  0mm 144.00 W/m2
09:34 42.0 °F /  5.6 °C 39.0 °F /  3.9 °C 30.0in /  1015.8hPa NE 25mph /  40.2km/h 20mph /  32.2km/h 87% 0.000in /  0mm 142.00 W/m2
09:39 42.0 °F /  5.6 °C 39.0 °F /  3.9 °C 30.0in /  1015.8hPa NE 21mph /  33.8km/h 25mph /  40.2km/h 87% 0.000in /  0mm 69.00 W/m2
09:44 42.0 °F /  5.6 °C 39.0 °F /  3.9 °C 30.0in /  1015.8hPa NE 18mph /  29km/h 21mph /  33.8km/h 87% 0.000in /  0mm 65.00 W/m2
09:49 42.0 °F /  5.6 °C 39.0 °F /  3.9 °C 30.0in /  1015.8hPa North 30mph /  48.3km/h 17mph /  27.4km/h 87% 0.000in /  0mm 65.00 W/m2
09:54 42.0 °F /  5.6 °C 39.0 °F /  3.9 °C 30.0in /  1015.8hPa NE 16mph /  25.7km/h 30mph /  48.3km/h 87% 0.000in /  0mm 56.00 W/m2
09:59 42.0 °F /  5.6 °C 39.0 °F /  3.9 °C 30.0in /  1015.8hPa NNE 23mph /  37km/h 16mph /  25.7km/h 87% 0.000in /  0mm 46.00 W/m2
10:04 42.0 °F /  5.6 °C 39.0 °F /  3.9 °C 30.0in /  1015.8hPa ENE 18mph /  29km/h 23mph /  37km/h 88% 0.000in /  0mm 37.00 W/m2
10:09 42.0 °F /  5.6 °C 39.0 °F /  3.9 °C 30.0in /  1015.8hPa NNE 16mph /  25.7km/h 17mph /  27.4km/h 89% 0.000in /  0mm 37.00 W/m2
10:14 42.0 °F /  5.6 °C 39.0 °F /  3.9 °C 30.0in /  1015.8hPa East 16mph /  25.7km/h 16mph /  25.7km/h 89% 0.000in /  0mm 37.00 W/m2
10:19 42.0 °F /  5.6 °C 39.0 °F /  3.9 °C 30.0in /  1015.8hPa NE 18mph /  29km/h 16mph /  25.7km/h 90% 0.000in /  0mm 49.00 W/m2
10:24 42.0 °F /  5.6 °C 39.0 °F /  3.9 °C 30.0in /  1015.8hPa NE 18mph /  29km/h 17mph /  27.4km/h 90% 0.000in /  0mm 49.00 W/m2
10:29 42.0 °F /  5.6 °C 39.0 °F /  3.9 °C 30.0in /  1015.8hPa ENE 23mph /  37km/h 17mph /  27.4km/h 90% 0.000in /  0mm 60.00 W/m2
10:34 42.0 °F /  5.6 °C 40.0 °F /  4.4 °C 30.0in /  1015.8hPa NE 27mph /  43.5km/h 23mph /  37km/h 91% 0.000in /  0mm 60.00 W/m2
10:39 42.0 °F /  5.6 °C 40.0 °F /  4.4 °C 30.0in /  1015.8hPa NE 20mph /  32.2km/h 26mph /  41.8km/h 91% 0.000in /  0mm 44.00 W/m2
10:44 42.0 °F /  5.6 °C 40.0 °F /  4.4 °C 30.0in /  1015.8hPa ENE 20mph /  32.2km/h 13mph /  20.9km/h 91% 0.000in /  0mm 40.00 W/m2
10:49 42.0 °F /  5.6 °C 40.0 °F /  4.4 °C 30.0in /  1015.8hPa NE 21mph /  33.8km/h 20mph /  32.2km/h 91% 0.000in /  0mm 86.00 W/m2
10:54 42.0 °F /  5.6 °C 40.0 °F /  4.4 °C 30.0in /  1015.8hPa NE 20mph /  32.2km/h 21mph /  33.8km/h 91% 0.000in /  0mm 104.00 W/m2
10:59 43.0 °F /  6.1 °C 40.0 °F /  4.4 °C 29.9in /  1012.4hPa ENE 25mph /  40.2km/h 20mph /  32.2km/h 91% 0.000in /  0mm 156.00 W/m2
11:04 43.0 °F /  6.1 °C 40.0 °F /  4.4 °C 29.9in /  1012.4hPa NE 19mph /  30.6km/h 25mph /  40.2km/h 91% 0.000in /  0mm 156.00 W/m2
11:09 43.0 °F /  6.1 °C 41.0 °F /  5 °C 29.9in /  1012.4hPa North 21mph /  33.8km/h 15mph /  24.1km/h 91% 0.000in /  0mm 104.00 W/m2
11:14 43.0 °F /  6.1 °C 41.0 °F /  5 °C 29.9in /  1012.4hPa NNW 21mph /  33.8km/h 21mph /  33.8km/h 91% 0.010in /  0.25mm 98.00 W/m2
11:19 43.0 °F /  6.1 °C 41.0 °F /  5 °C 29.9in /  1012.4hPa North 40mph /  64.4km/h 30mph /  48.3km/h 91% 0.010in /  0.25mm 84.00 W/m2
11:24 43.0 °F /  6.1 °C 41.0 °F /  5 °C 29.9in /  1012.4hPa NE 16mph /  25.7km/h 40mph /  64.4km/h 90% 0.010in /  0.25mm 60.00 W/m2
11:29 43.0 °F /  6.1 °C 41.0 °F /  5 °C 29.9in /  1012.4hPa ENE 16mph /  25.7km/h 16mph /  25.7km/h 90% 0.010in /  0.25mm 44.00 W/m2
11:34 43.0 °F /  6.1 °C 41.0 °F /  5 °C 29.9in /  1012.4hPa East 30mph /  48.3km/h 16mph /  25.7km/h 90% 0.010in /  0.25mm 39.00 W/m2
11:39 43.0 °F /  6.1 °C 41.0 °F /  5 °C 29.9in /  1012.4hPa East 16mph /  25.7km/h 30mph /  48.3km/h 90% 0.020in /  0.51mm 26.00 W/m2
11:44 43.0 °F /  6.1 °C 41.0 °F /  5 °C 29.9in /  1012.4hPa NNW 16mph /  25.7km/h 16mph /  25.7km/h 90% 0.040in /  1.02mm 19.00 W/m2
11:49 43.0 °F /  6.1 °C 40.0 °F /  4.4 °C 29.9in /  1012.4hPa ENE 28mph /  45.1km/h 13mph /  20.9km/h 90% 0.040in /  1.02mm 28.00 W/m2
11:54 43.0 °F /  6.1 °C 40.0 °F /  4.4 °C 29.9in /  1012.4hPa NNE 28mph /  45.1km/h 28mph /  45.1km/h 90% 0.050in /  1.27mm 26.00 W/m2
11:58 43.0 °F /  6.1 °C 40.0 °F /  4.4 °C 29.9in /  1012.4hPa North 24mph /  38.6km/h 25mph /  40.2km/h 90% 0.050in /  1.27mm 25.00 W/m2
12:04 42.0 °F /  5.6 °C 40.0 °F /  4.4 °C 29.9in /  1012.4hPa ENE 11mph /  17.7km/h 20mph /  32.2km/h 90% 0.060in /  1.52mm 40.00 W/m2
12:09 42.0 °F /  5.6 °C 40.0 °F /  4.4 °C 29.9in /  1012.4hPa NNE 25mph /  40.2km/h 21mph /  33.8km/h 91% 0.060in /  1.52mm 35.00 W/m2
12:14 42.0 °F /  5.6 °C 40.0 °F /  4.4 °C 29.9in /  1012.4hPa SE 16mph /  25.7km/h 25mph /  40.2km/h 91% 0.060in /  1.52mm 46.00 W/m2
12:19 42.0 °F /  5.6 °C 40.0 °F /  4.4 °C 29.9in /  1012.4hPa ESE 19mph /  30.6km/h 14mph /  22.5km/h 91% 0.070in /  1.78mm 56.00 W/m2
12:24 42.0 °F /  5.6 °C 40.0 °F /  4.4 °C 29.9in /  1012.4hPa SSW 20mph /  32.2km/h 20mph /  32.2km/h 91% 0.070in /  1.78mm 53.00 W/m2
12:29 42.0 °F /  5.6 °C 40.0 °F /  4.4 °C 29.9in /  1012.4hPa SE 25mph /  40.2km/h 20mph /  32.2km/h 92% 0.080in /  2.03mm 56.00 W/m2
12:34 42.0 °F /  5.6 °C 40.0 °F /  4.4 °C 29.9in /  1012.4hPa ENE 9mph /  14.5km/h 25mph /  40.2km/h 92% 0.080in /  2.03mm 40.00 W/m2
12:39 42.0 °F /  5.6 °C 40.0 °F /  4.4 °C 29.9in /  1012.4hPa East 16mph /  25.7km/h 13mph /  20.9km/h 92% 0.080in /  2.03mm 62.00 W/m2
12:44 42.0 °F /  5.6 °C 40.0 °F /  4.4 °C 29.9in /  1012.4hPa ENE 21mph /  33.8km/h 16mph /  25.7km/h 92% 0.070in /  1.78mm 49.00 W/m2
12:49 42.0 °F /  5.6 °C 40.0 °F /  4.4 °C 29.9in /  1012.4hPa East 21mph /  33.8km/h 21mph /  33.8km/h 92% 0.070in /  1.78mm 32.00 W/m2
12:54 42.0 °F /  5.6 °C 40.0 °F /  4.4 °C 29.9in /  1012.4hPa NNE 18mph /  29km/h 9mph /  14.5km/h 92% 0.070in /  1.78mm 40.00 W/m2
12:59 42.0 °F /  5.6 °C 39.0 °F /  3.9 °C 29.9in /  1012.4hPa NNE 27mph /  43.5km/h 17mph /  27.4km/h 92% 0.070in /  1.78mm 33.00 W/m2
13:04 41.0 °F /  5 °C 39.0 °F /  3.9 °C 29.9in /  1012.4hPa NNW 11mph /  17.7km/h 26mph /  41.8km/h 92% 0.060in /  1.52mm 23.00 W/m2
13:09 41.0 °F /  5 °C 39.0 °F /  3.9 °C 29.9in /  1012.4hPa East 20mph /  32.2km/h 10mph /  16.1km/h 92% 0.070in /  1.78mm 18.00 W/m2
13:14 41.0 °F /  5 °C 39.0 °F /  3.9 °C 29.9in /  1012.4hPa NNE 18mph /  29km/h 20mph /  32.2km/h 92% 0.070in /  1.78mm 23.00 W/m2
13:19 41.0 °F /  5 °C 39.0 °F /  3.9 °C 29.9in /  1012.4hPa NE 20mph /  32.2km/h 20mph /  32.2km/h 92% 0.060in /  1.52mm 28.00 W/m2
13:24 41.0 °F /  5 °C 39.0 °F /  3.9 °C 29.9in /  1012.4hPa East 14mph /  22.5km/h 17mph /  27.4km/h 92% 0.070in /  1.78mm 35.00 W/m2
13:29 41.0 °F /  5 °C 39.0 °F /  3.9 °C 29.9in /  1012.4hPa East 9mph /  14.5km/h 10mph /  16.1km/h 92% 0.070in /  1.78mm 32.00 W/m2
13:34 41.0 °F /  5 °C 39.0 °F /  3.9 °C 29.9in /  1012.4hPa East 13mph /  20.9km/h 9mph /  14.5km/h 92% 0.070in /  1.78mm 33.00 W/m2
13:39 41.0 °F /  5 °C 39.0 °F /  3.9 °C 29.9in /  1012.4hPa East 18mph /  29km/h 13mph /  20.9km/h 93% 0.080in /  2.03mm 26.00 W/m2
13:44 41.0 °F /  5 °C 39.0 °F /  3.9 °C 29.9in /  1012.4hPa ENE 17mph /  27.4km/h 17mph /  27.4km/h 93% 0.080in /  2.03mm 23.00 W/m2
13:49 41.0 °F /  5 °C 39.0 °F /  3.9 °C 29.9in /  1012.4hPa SE 13mph /  20.9km/h 9mph /  14.5km/h 93% 0.080in /  2.03mm 26.00 W/m2
13:54 41.0 °F /  5 °C 39.0 °F /  3.9 °C 29.9in /  1012.4hPa ENE 11mph /  17.7km/h 13mph /  20.9km/h 93% 0.100in /  2.54mm 25.00 W/m2
13:59 41.0 °F /  5 °C 39.0 °F /  3.9 °C 29.9in /  1012.4hPa East 9mph /  14.5km/h 10mph /  16.1km/h 93% 0.090in /  2.29mm 21.00 W/m2
14:04 41.0 °F /  5 °C 39.0 °F /  3.9 °C 29.9in /  1012.4hPa ENE 14mph /  22.5km/h 9mph /  14.5km/h 93% 0.110in /  2.79mm 12.00 W/m2
14:09 41.0 °F /  5 °C 39.0 °F /  3.9 °C 29.9in /  1012.4hPa SE 18mph /  29km/h 14mph /  22.5km/h 93% 0.110in /  2.79mm 11.00 W/m2
14:14 41.0 °F /  5 °C 39.0 °F /  3.9 °C 29.9in /  1012.4hPa SE 28mph /  45.1km/h 22mph /  35.4km/h 93% 0.130in /  3.3mm 11.00 W/m2
14:19 41.0 °F /  5 °C 39.0 °F /  3.9 °C 29.9in /  1012.4hPa SE 21mph /  33.8km/h 28mph /  45.1km/h 93% 0.140in /  3.56mm 12.00 W/m2
14:24 41.0 °F /  5 °C 39.0 °F /  3.9 °C 29.9in /  1012.4hPa East 18mph /  29km/h 21mph /  33.8km/h 93% 0.140in /  3.56mm 16.00 W/m2
14:29 41.0 °F /  5 °C 39.0 °F /  3.9 °C 29.9in /  1012.4hPa ENE 9mph /  14.5km/h 17mph /  27.4km/h 93% 0.160in /  4.06mm 18.00 W/m2
14:34 41.0 °F /  5 °C 39.0 °F /  3.9 °C 29.9in /  1012.4hPa NE 13mph /  20.9km/h 10mph /  16.1km/h 93% 0.170in /  4.32mm 12.00 W/m2
14:39 41.0 °F /  5 °C 39.0 °F /  3.9 °C 29.9in /  1012.4hPa ESE 16mph /  25.7km/h 13mph /  20.9km/h 93% 0.180in /  4.57mm 19.00 W/m2
14:44 41.0 °F /  5 °C 39.0 °F /  3.9 °C 29.9in /  1012.4hPa ESE 20mph /  32.2km/h 16mph /  25.7km/h 93% 0.180in /  4.57mm 26.00 W/m2
14:49 41.0 °F /  5 °C 40.0 °F /  4.4 °C 29.9in /  1012.4hPa NE 11mph /  17.7km/h 20mph /  32.2km/h 94% 0.180in /  4.57mm 39.00 W/m2
14:54 41.0 °F /  5 °C 40.0 °F /  4.4 °C 29.9in /  1012.4hPa NNE 18mph /  29km/h 8mph /  12.9km/h 94% 0.170in /  4.32mm 53.00 W/m2
14:59 41.0 °F /  5 °C 40.0 °F /  4.4 °C 29.8in /  1009hPa NNE 6mph /  9.7km/h 17mph /  27.4km/h 94% 0.160in /  4.06mm 44.00 W/m2
15:04 41.0 °F /  5 °C 40.0 °F /  4.4 °C 29.8in /  1009hPa SSE 18mph /  29km/h 10mph /  16.1km/h 94% 0.150in /  3.81mm 26.00 W/m2
15:09 41.0 °F /  5 °C 40.0 °F /  4.4 °C 29.8in /  1009hPa ESE 18mph /  29km/h 17mph /  27.4km/h 94% 0.140in /  3.56mm 26.00 W/m2
15:14 41.0 °F /  5 °C 40.0 °F /  4.4 °C 29.8in /  1009hPa South 20mph /  32.2km/h 17mph /  27.4km/h 94% 0.120in /  3.05mm 19.00 W/m2
15:19 41.0 °F /  5 °C 40.0 °F /  4.4 °C 29.8in /  1009hPa East 13mph /  20.9km/h 20mph /  32.2km/h 94% 0.110in /  2.79mm 16.00 W/m2
15:24 41.0 °F /  5 °C 40.0 °F /  4.4 °C 29.8in /  1009hPa ENE 18mph /  29km/h 13mph /  20.9km/h 94% 0.100in /  2.54mm 25.00 W/m2
15:29 41.0 °F /  5 °C 40.0 °F /  4.4 °C 29.8in /  1009hPa NNW 13mph /  20.9km/h 17mph /  27.4km/h 94% 0.080in /  2.03mm 25.00 W/m2
15:34 41.0 °F /  5 °C 40.0 °F /  4.4 °C 29.8in /  1009hPa NNE 11mph /  17.7km/h 13mph /  20.9km/h 94% 0.070in /  1.78mm 25.00 W/m2
15:39 41.0 °F /  5 °C 40.0 °F /  4.4 °C 29.8in /  1009hPa ESE 9mph /  14.5km/h 7mph /  11.3km/h 94% 0.050in /  1.27mm 21.00 W/m2
15:44 41.0 °F /  5 °C 40.0 °F /  4.4 °C 29.8in /  1009hPa South 9mph /  14.5km/h 9mph /  14.5km/h 94% 0.030in /  0.76mm 23.00 W/m2
15:49 41.0 °F /  5 °C 40.0 °F /  4.4 °C 29.8in /  1009hPa NE 19mph /  30.6km/h 14mph /  22.5km/h 94% 0.020in /  0.51mm 25.00 W/m2
15:54 41.0 °F /  5 °C 40.0 °F /  4.4 °C 29.8in /  1009hPa ENE 20mph /  32.2km/h 20mph /  32.2km/h 94% 0.010in /  0.25mm 14.00 W/m2
15:59 41.0 °F /  5 °C 40.0 °F /  4.4 °C 29.8in /  1009hPa NE 16mph /  25.7km/h 13mph /  20.9km/h 94% 0.010in /  0.25mm 11.00 W/m2
16:04 41.0 °F /  5 °C 40.0 °F /  4.4 °C 29.8in /  1009hPa NE 12mph /  19.3km/h 5mph /  8km/h 94% 0.010in /  0.25mm 14.00 W/m2
16:08 41.0 °F /  5 °C 40.0 °F /  4.4 °C 29.8in /  1009hPa NE 13mph /  20.9km/h 13mph /  20.9km/h 94% 0.010in /  0.25mm 14.00 W/m2
16:14 41.0 °F /  5 °C 40.0 °F /  4.4 °C 29.8in /  1009hPa NE 28mph /  45.1km/h 20mph /  32.2km/h 94% 0.010in /  0.25mm 7.00 W/m2
16:19 41.0 °F /  5 °C 40.0 °F /  4.4 °C 29.8in /  1009hPa North 11mph /  17.7km/h 28mph /  45.1km/h 94% 0.010in /  0.25mm 5.00 W/m2
16:24 41.0 °F /  5 °C 39.0 °F /  3.9 °C 29.8in /  1009hPa SE 11mph /  17.7km/h 11mph /  17.7km/h 94% 0.010in /  0.25mm 0.00 W/m2
16:29 41.0 °F /  5 °C 39.0 °F /  3.9 °C 29.8in /  1009hPa SSE 16mph /  25.7km/h 10mph /  16.1km/h 94% 0.000in /  0mm 5.00 W/m2
16:34 41.0 °F /  5 °C 39.0 °F /  3.9 °C 29.8in /  1009hPa SE 7mph /  11.3km/h 16mph /  25.7km/h 94% 0.000in /  0mm 0.00 W/m2
16:39 41.0 °F /  5 °C 39.0 °F /  3.9 °C 29.8in /  1009hPa East 18mph /  29km/h 7mph /  11.3km/h 94% 0.000in /  0mm 0.00 W/m2
16:44 41.0 °F /  5 °C 39.0 °F /  3.9 °C 29.8in /  1009hPa East 16mph /  25.7km/h 17mph /  27.4km/h 94% 0.000in /  0mm 0.00 W/m2
16:49 41.0 °F /  5 °C 39.0 °F /  3.9 °C 29.8in /  1009hPa NE 11mph /  17.7km/h 16mph /  25.7km/h 94% 0.000in /  0mm 0.00 W/m2
16:54 41.0 °F /  5 °C 39.0 °F /  3.9 °C 29.8in /  1009hPa NE 18mph /  29km/h 10mph /  16.1km/h 94% 0.010in /  0.25mm 0.00 W/m2
16:59 41.0 °F /  5 °C 39.0 °F /  3.9 °C 29.8in /  1009hPa East 9mph /  14.5km/h 17mph /  27.4km/h 94% 0.010in /  0.25mm 0.00 W/m2
17:04 41.0 °F /  5 °C 39.0 °F /  3.9 °C 29.8in /  1009hPa SE 18mph /  29km/h 12mph /  19.3km/h 94% 0.020in /  0.51mm 0.00 W/m2
17:09 41.0 °F /  5 °C 39.0 °F /  3.9 °C 29.8in /  1009hPa South 13mph /  20.9km/h 17mph /  27.4km/h 94% 0.040in /  1.02mm 0.00 W/m2
17:14 41.0 °F /  5 °C 39.0 °F /  3.9 °C 29.8in /  1009hPa ESE 16mph /  25.7km/h 13mph /  20.9km/h 94% 0.050in /  1.27mm 0.00 W/m2
17:19 41.0 °F /  5 °C 39.0 °F /  3.9 °C 29.8in /  1009hPa SSE 23mph /  37km/h 23mph /  37km/h 94% 0.070in /  1.78mm 0.00 W/m2
17:24 41.0 °F /  5 °C 39.0 °F /  3.9 °C 29.8in /  1009hPa ESE 7mph /  11.3km/h 7mph /  11.3km/h 94% 0.080in /  2.03mm 0.00 W/m2
17:29 41.0 °F /  5 °C 39.0 °F /  3.9 °C 29.8in /  1009hPa ESE 16mph /  25.7km/h 10mph /  16.1km/h 94% 0.090in /  2.29mm 0.00 W/m2
17:34 41.0 °F /  5 °C 39.0 °F /  3.9 °C 29.8in /  1009hPa SSE 11mph /  17.7km/h 16mph /  25.7km/h 94% 0.100in /  2.54mm 0.00 W/m2
17:39 41.0 °F /  5 °C 39.0 °F /  3.9 °C 29.8in /  1009hPa South 10mph /  16.1km/h 10mph /  16.1km/h 94% 0.110in /  2.79mm 0.00 W/m2
17:44 41.0 °F /  5 °C 39.0 °F /  3.9 °C 29.8in /  1009hPa SE 13mph /  20.9km/h 10mph /  16.1km/h 94% 0.110in /  2.79mm 0.00 W/m2
17:49 41.0 °F /  5 °C 39.0 °F /  3.9 °C 29.8in /  1009hPa NE 30mph /  48.3km/h 19mph /  30.6km/h 94% 0.140in /  3.56mm 0.00 W/m2
17:54 41.0 °F /  5 °C 39.0 °F /  3.9 °C 29.8in /  1009hPa ESE 23mph /  37km/h 30mph /  48.3km/h 94% 0.160in /  4.06mm 0.00 W/m2
17:59 41.0 °F /  5 °C 39.0 °F /  3.9 °C 29.8in /  1009hPa ESE 23mph /  37km/h 23mph /  37km/h 94% 0.180in /  4.57mm 0.00 W/m2
18:04 41.0 °F /  5 °C 39.0 °F /  3.9 °C 29.8in /  1009hPa SE 23mph /  37km/h 23mph /  37km/h 94% 0.180in /  4.57mm 0.00 W/m2
18:09 41.0 °F /  5 °C 39.0 °F /  3.9 °C 29.8in /  1009hPa East 20mph /  32.2km/h 23mph /  37km/h 94% 0.180in /  4.57mm 0.00 W/m2
18:14 40.0 °F /  4.4 °C 39.0 °F /  3.9 °C 29.8in /  1009hPa ESE 18mph /  29km/h 20mph /  32.2km/h 94% 0.160in /  4.06mm 0.00 W/m2
18:19 40.0 °F /  4.4 °C 39.0 °F /  3.9 °C 29.8in /  1009hPa East 30mph /  48.3km/h 13mph /  20.9km/h 94% 0.160in /  4.06mm 0.00 W/m2
18:24 40.0 °F /  4.4 °C 39.0 °F /  3.9 °C 29.8in /  1009hPa SE 27mph /  43.5km/h 30mph /  48.3km/h 94% 0.150in /  3.81mm 0.00 W/m2
18:29 40.0 °F /  4.4 °C 39.0 °F /  3.9 °C 29.8in /  1009hPa ESE 16mph /  25.7km/h 26mph /  41.8km/h 94% 0.150in /  3.81mm 0.00 W/m2
18:34 40.0 °F /  4.4 °C 39.0 °F /  3.9 °C 29.8in /  1009hPa ESE 20mph /  32.2km/h 16mph /  25.7km/h 94% 0.140in /  3.56mm 0.00 W/m2
18:39 40.0 °F /  4.4 °C 39.0 °F /  3.9 °C 29.8in /  1009hPa SE 16mph /  25.7km/h 20mph /  32.2km/h 94% 0.130in /  3.3mm 0.00 W/m2
18:44 40.0 °F /  4.4 °C 39.0 °F /  3.9 °C 29.8in /  1009hPa SE 9mph /  14.5km/h 16mph /  25.7km/h 94% 0.120in /  3.05mm 0.00 W/m2
18:49 40.0 °F /  4.4 °C 39.0 °F /  3.9 °C 29.8in /  1009hPa East 16mph /  25.7km/h 9mph /  14.5km/h 94% 0.110in /  2.79mm 0.00 W/m2
18:54 40.0 °F /  4.4 °C 39.0 °F /  3.9 °C 29.8in /  1009hPa NNE 23mph /  37km/h 16mph /  25.7km/h 94% 0.080in /  2.03mm 0.00 W/m2
18:59 40.0 °F /  4.4 °C 39.0 °F /  3.9 °C 29.8in /  1009hPa East 13mph /  20.9km/h 23mph /  37km/h 94% 0.050in /  1.27mm 0.00 W/m2
19:04 40.0 °F /  4.4 °C 39.0 °F /  3.9 °C 29.8in /  1009hPa ESE 16mph /  25.7km/h 13mph /  20.9km/h 94% 0.040in /  1.02mm 0.00 W/m2
19:09 40.0 °F /  4.4 °C 39.0 °F /  3.9 °C 29.8in /  1009hPa ENE 13mph /  20.9km/h 16mph /  25.7km/h 94% 0.030in /  0.76mm 0.00 W/m2
19:14 40.0 °F /  4.4 °C 38.0 °F /  3.3 °C 29.8in /  1009hPa SE 16mph /  25.7km/h 7mph /  11.3km/h 94% 0.030in /  0.76mm 0.00 W/m2
19:19 40.0 °F /  4.4 °C 38.0 °F /  3.3 °C 29.8in /  1009hPa SE 18mph /  29km/h 16mph /  25.7km/h 94% 0.020in /  0.51mm 0.00 W/m2
19:24 40.0 °F /  4.4 °C 38.0 °F /  3.3 °C 29.8in /  1009hPa SE 21mph /  33.8km/h 17mph /  27.4km/h 94% 0.010in /  0.25mm 0.00 W/m2
19:29 40.0 °F /  4.4 °C 38.0 °F /  3.3 °C 29.8in /  1009hPa ESE 16mph /  25.7km/h 21mph /  33.8km/h 94% 0.000in /  0mm 0.00 W/m2
19:30 40.0 °F /  4.4 °C 38.0 °F /  3.3 °C 29.8in /  1009hPa Calm   16mph /  25.7km/h 94% 0.000in /  0mm 0.00 W/m2
El Dorado Weather
Compliments of Weather Underground - 2 mb